sensor_id;sensor_type;location;lat;lon;timestamp;temperature;humidity
2441;DHT22;1231;53.988;9.470;2022-10-31T00:01:45;13.00;89.20
2441;DHT22;1231;53.988;9.470;2022-10-31T00:04:15;13.00;89.30
2441;DHT22;1231;53.988;9.470;2022-10-31T00:06:46;13.10;89.40
2441;DHT22;1231;53.988;9.470;2022-10-31T00:09:16;13.10;89.30
2441;DHT22;1231;53.988;9.470;2022-10-31T00:11:47;13.20;89.20
2441;DHT22;1231;53.988;9.470;2022-10-31T00:14:18;13.20;89.10
2441;DHT22;1231;53.988;9.470;2022-10-31T00:16:48;13.10;88.90
2441;DHT22;1231;53.988;9.470;2022-10-31T00:19:19;13.10;88.80
2441;DHT22;1231;53.988;9.470;2022-10-31T00:21:51;13.10;88.80
2441;DHT22;1231;53.988;9.470;2022-10-31T00:24:22;13.10;89.00
2441;DHT22;1231;53.988;9.470;2022-10-31T00:26:52;13.20;89.10
2441;DHT22;1231;53.988;9.470;2022-10-31T00:29:23;13.20;89.20
2441;DHT22;1231;53.988;9.470;2022-10-31T00:31:54;13.20;89.10
2441;DHT22;1231;53.988;9.470;2022-10-31T00:34:24;13.20;89.20
2441;DHT22;1231;53.988;9.470;2022-10-31T00:36:55;13.30;89.30
2441;DHT22;1231;53.988;9.470;2022-10-31T00:39:25;13.30;89.30
2441;DHT22;1231;53.988;9.470;2022-10-31T00:41:56;13.30;89.40
2441;DHT22;1231;53.988;9.470;2022-10-31T00:44:26;13.40;89.40
2441;DHT22;1231;53.988;9.470;2022-10-31T00:46:57;13.40;89.40
2441;DHT22;1231;53.988;9.470;2022-10-31T00:49:27;13.50;89.30
2441;DHT22;1231;53.988;9.470;2022-10-31T00:51:58;13.50;89.20
2441;DHT22;1231;53.988;9.470;2022-10-31T00:54:28;13.50;89.10
2441;DHT22;1231;53.988;9.470;2022-10-31T00:57:01;13.50;89.10
2441;DHT22;1231;53.988;9.470;2022-10-31T00:59:31;13.50;89.20
2441;DHT22;1231;53.988;9.470;2022-10-31T01:02:02;13.50;89.30
2441;DHT22;1231;53.988;9.470;2022-10-31T01:04:32;13.50;89.30
2441;DHT22;1231;53.988;9.470;2022-10-31T01:07:03;13.50;89.30
2441;DHT22;1231;53.988;9.470;2022-10-31T01:09:33;13.50;89.40
2441;DHT22;1231;53.988;9.470;2022-10-31T01:12:04;13.60;89.40
2441;DHT22;1231;53.988;9.470;2022-10-31T01:14:35;13.60;89.30
2441;DHT22;1231;53.988;9.470;2022-10-31T01:17:05;13.60;89.20
2441;DHT22;1231;53.988;9.470;2022-10-31T01:19:36;13.60;89.20
2441;DHT22;1231;53.988;9.470;2022-10-31T01:22:06;13.60;89.10
2441;DHT22;1231;53.988;9.470;2022-10-31T01:24:37;13.60;89.10
2441;DHT22;1231;53.988;9.470;2022-10-31T01:27:07;13.60;89.10
2441;DHT22;1231;53.988;9.470;2022-10-31T01:29:38;13.60;89.00
2441;DHT22;1231;53.988;9.470;2022-10-31T01:32:09;13.50;88.90
2441;DHT22;1231;53.988;9.470;2022-10-31T01:34:39;13.50;88.90
2441;DHT22;1231;53.988;9.470;2022-10-31T01:37:10;13.50;88.90
2441;DHT22;1231;53.988;9.470;2022-10-31T01:39:40;13.50;88.90
2441;DHT22;1231;53.988;9.470;2022-10-31T01:42:18;13.50;88.90
2441;DHT22;1231;53.988;9.470;2022-10-31T01:45:01;13.50;89.00
2441;DHT22;1231;53.988;9.470;2022-10-31T01:47:42;13.60;89.10
2441;DHT22;1231;53.988;9.470;2022-10-31T01:50:26;13.50;89.10
2441;DHT22;1231;53.988;9.470;2022-10-31T01:52:58;13.50;89.10
2441;DHT22;1231;53.988;9.470;2022-10-31T01:55:32;13.60;89.20
2441;DHT22;1231;53.988;9.470;2022-10-31T01:58:14;13.60;89.20
2441;DHT22;1231;53.988;9.470;2022-10-31T02:00:49;13.60;89.20
2441;DHT22;1231;53.988;9.470;2022-10-31T02:03:22;13.60;89.20
2441;DHT22;1231;53.988;9.470;2022-10-31T02:05:55;13.70;89.20
2441;DHT22;1231;53.988;9.470;2022-10-31T02:08:26;13.70;89.20
2441;DHT22;1231;53.988;9.470;2022-10-31T02:10:58;13.70;89.30
2441;DHT22;1231;53.988;9.470;2022-10-31T02:13:29;13.70;89.30
2441;DHT22;1231;53.988;9.470;2022-10-31T02:16:00;13.70;89.20
2441;DHT22;1231;53.988;9.470;2022-10-31T02:18:31;13.70;89.10
2441;DHT22;1231;53.988;9.470;2022-10-31T02:29:32;13.50;88.80
2441;DHT22;1231;53.988;9.470;2022-10-31T02:35:33;13.50;88.90
2441;DHT22;1231;53.988;9.470;2022-10-31T02:49:12;13.50;89.40
2441;DHT22;1231;53.988;9.470;2022-10-31T02:51:46;13.50;89.50
2441;DHT22;1231;53.988;9.470;2022-10-31T02:54:23;13.50;89.40
2441;DHT22;1231;53.988;9.470;2022-10-31T02:57:00;13.50;89.30
2441;DHT22;1231;53.988;9.470;2022-10-31T02:59:46;13.50;89.30
2441;DHT22;1231;53.988;9.470;2022-10-31T03:02:45;13.50;89.30
2441;DHT22;1231;53.988;9.470;2022-10-31T03:05:32;13.50;89.20
2441;DHT22;1231;53.988;9.470;2022-10-31T03:08:30;13.50;89.10
2441;DHT22;1231;53.988;9.470;2022-10-31T03:11:07;13.40;89.00
2441;DHT22;1231;53.988;9.470;2022-10-31T03:13:47;13.40;89.10
2441;DHT22;1231;53.988;9.470;2022-10-31T03:19:26;13.30;89.20
2441;DHT22;1231;53.988;9.470;2022-10-31T03:22:04;13.30;89.30
2441;DHT22;1231;53.988;9.470;2022-10-31T03:24:38;13.30;89.30
2441;DHT22;1231;53.988;9.470;2022-10-31T03:27:13;13.30;89.40
2441;DHT22;1231;53.988;9.470;2022-10-31T03:29:47;13.30;89.30
2441;DHT22;1231;53.988;9.470;2022-10-31T03:32:23;13.30;89.20
2441;DHT22;1231;53.988;9.470;2022-10-31T03:34:57;13.30;89.30
2441;DHT22;1231;53.988;9.470;2022-10-31T03:37:31;13.30;89.30
2441;DHT22;1231;53.988;9.470;2022-10-31T03:40:05;13.30;89.40
2441;DHT22;1231;53.988;9.470;2022-10-31T03:42:39;13.30;89.40
2441;DHT22;1231;53.988;9.470;2022-10-31T03:45:23;13.30;89.40
2441;DHT22;1231;53.988;9.470;2022-10-31T03:47:56;13.30;89.50
2441;DHT22;1231;53.988;9.470;2022-10-31T03:50:35;13.30;89.40
2441;DHT22;1231;53.988;9.470;2022-10-31T03:53:20;13.30;89.30
2441;DHT22;1231;53.988;9.470;2022-10-31T03:56:09;13.30;89.30
2441;DHT22;1231;53.988;9.470;2022-10-31T03:59:09;13.30;89.20
2441;DHT22;1231;53.988;9.470;2022-10-31T04:01:42;13.20;89.20
2441;DHT22;1231;53.988;9.470;2022-10-31T04:04:15;13.20;89.10
2441;DHT22;1231;53.988;9.470;2022-10-31T04:06:46;13.10;89.10
2441;DHT22;1231;53.988;9.470;2022-10-31T04:09:19;13.10;89.00
2441;DHT22;1231;53.988;9.470;2022-10-31T04:11:53;13.10;89.00
2441;DHT22;1231;53.988;9.470;2022-10-31T04:14:26;13.10;89.00
2441;DHT22;1231;53.988;9.470;2022-10-31T04:16:58;13.10;89.00
2441;DHT22;1231;53.988;9.470;2022-10-31T04:19:29;13.10;89.00
2441;DHT22;1231;53.988;9.470;2022-10-31T04:22:00;13.10;89.10
2441;DHT22;1231;53.988;9.470;2022-10-31T04:24:31;13.10;89.10
2441;DHT22;1231;53.988;9.470;2022-10-31T04:27:01;13.10;89.10
2441;DHT22;1231;53.988;9.470;2022-10-31T04:29:32;13.10;89.10
2441;DHT22;1231;53.988;9.470;2022-10-31T04:32:03;13.10;89.10
2441;DHT22;1231;53.988;9.470;2022-10-31T04:34:33;13.10;89.10
2441;DHT22;1231;53.988;9.470;2022-10-31T04:37:04;13.10;89.10
2441;DHT22;1231;53.988;9.470;2022-10-31T04:39:34;13.10;89.10
2441;DHT22;1231;53.988;9.470;2022-10-31T04:42:05;13.10;89.30
2441;DHT22;1231;53.988;9.470;2022-10-31T04:44:35;13.20;89.40
2441;DHT22;1231;53.988;9.470;2022-10-31T04:47:06;13.20;89.50
2441;DHT22;1231;53.988;9.470;2022-10-31T04:49:36;13.30;89.50
2441;DHT22;1231;53.988;9.470;2022-10-31T04:52:07;13.30;89.60
2441;DHT22;1231;53.988;9.470;2022-10-31T04:54:38;13.40;89.70
2441;DHT22;1231;53.988;9.470;2022-10-31T04:57:08;13.40;89.70
2441;DHT22;1231;53.988;9.470;2022-10-31T04:59:39;13.50;89.60
2441;DHT22;1231;53.988;9.470;2022-10-31T05:02:10;13.50;89.70
2441;DHT22;1231;53.988;9.470;2022-10-31T05:04:40;13.60;89.80
2441;DHT22;1231;53.988;9.470;2022-10-31T05:07:11;13.60;90.10
2441;DHT22;1231;53.988;9.470;2022-10-31T05:09:41;13.70;90.30
2441;DHT22;1231;53.988;9.470;2022-10-31T05:12:12;13.80;90.40
2441;DHT22;1231;53.988;9.470;2022-10-31T05:14:42;13.80;90.40
2441;DHT22;1231;53.988;9.470;2022-10-31T05:17:13;13.90;90.40
2441;DHT22;1231;53.988;9.470;2022-10-31T05:19:43;13.90;90.30
2441;DHT22;1231;53.988;9.470;2022-10-31T05:22:14;13.90;90.20
2441;DHT22;1231;53.988;9.470;2022-10-31T05:24:44;14.00;90.20
2441;DHT22;1231;53.988;9.470;2022-10-31T05:27:15;14.00;90.20
2441;DHT22;1231;53.988;9.470;2022-10-31T05:29:45;14.10;90.20
2441;DHT22;1231;53.988;9.470;2022-10-31T05:32:16;14.10;90.20
2441;DHT22;1231;53.988;9.470;2022-10-31T05:34:46;14.10;90.20
2441;DHT22;1231;53.988;9.470;2022-10-31T05:37:17;14.20;90.10
2441;DHT22;1231;53.988;9.470;2022-10-31T05:39:47;14.20;90.20
2441;DHT22;1231;53.988;9.470;2022-10-31T05:42:18;14.20;90.10
2441;DHT22;1231;53.988;9.470;2022-10-31T05:44:48;14.20;90.10
2441;DHT22;1231;53.988;9.470;2022-10-31T05:47:19;14.20;90.00
2441;DHT22;1231;53.988;9.470;2022-10-31T05:49:50;14.20;90.00
2441;DHT22;1231;53.988;9.470;2022-10-31T05:52:20;14.20;90.00
2441;DHT22;1231;53.988;9.470;2022-10-31T05:54:51;14.20;90.00
2441;DHT22;1231;53.988;9.470;2022-10-31T05:57:21;14.20;89.90
2441;DHT22;1231;53.988;9.470;2022-10-31T05:59:52;14.30;89.90
2441;DHT22;1231;53.988;9.470;2022-10-31T06:02:25;14.30;89.90
2441;DHT22;1231;53.988;9.470;2022-10-31T06:04:57;14.30;89.90
2441;DHT22;1231;53.988;9.470;2022-10-31T06:07:32;14.30;89.90
2441;DHT22;1231;53.988;9.470;2022-10-31T06:10:05;14.30;89.90
2441;DHT22;1231;53.988;9.470;2022-10-31T06:12:36;14.40;89.90
2441;DHT22;1231;53.988;9.470;2022-10-31T06:15:08;14.40;89.90
2441;DHT22;1231;53.988;9.470;2022-10-31T06:17:39;14.40;89.90
2441;DHT22;1231;53.988;9.470;2022-10-31T06:20:10;14.40;89.90
2441;DHT22;1231;53.988;9.470;2022-10-31T06:22:40;14.40;90.00
2441;DHT22;1231;53.988;9.470;2022-10-31T06:25:11;14.40;90.10
2441;DHT22;1231;53.988;9.470;2022-10-31T06:27:41;14.40;90.10
2441;DHT22;1231;53.988;9.470;2022-10-31T06:30:12;14.50;90.10
2441;DHT22;1231;53.988;9.470;2022-10-31T06:32:43;14.50;90.10
2441;DHT22;1231;53.988;9.470;2022-10-31T06:35:13;14.50;90.00
2441;DHT22;1231;53.988;9.470;2022-10-31T06:37:51;14.50;90.00
2441;DHT22;1231;53.988;9.470;2022-10-31T06:40:22;14.60;90.00
2441;DHT22;1231;53.988;9.470;2022-10-31T06:43:00;14.60;90.00
2441;DHT22;1231;53.988;9.470;2022-10-31T06:45:30;14.60;89.90
2441;DHT22;1231;53.988;9.470;2022-10-31T06:48:01;14.60;89.90
2441;DHT22;1231;53.988;9.470;2022-10-31T06:50:31;14.70;90.00
2441;DHT22;1231;53.988;9.470;2022-10-31T06:53:02;14.70;89.90
2441;DHT22;1231;53.988;9.470;2022-10-31T06:55:33;14.70;89.90
2441;DHT22;1231;53.988;9.470;2022-10-31T06:58:03;14.70;90.00
2441;DHT22;1231;53.988;9.470;2022-10-31T07:00:34;14.70;90.00
2441;DHT22;1231;53.988;9.470;2022-10-31T07:03:14;14.70;90.00
2441;DHT22;1231;53.988;9.470;2022-10-31T07:05:46;14.80;90.00
2441;DHT22;1231;53.988;9.470;2022-10-31T07:08:16;14.80;90.00
2441;DHT22;1231;53.988;9.470;2022-10-31T07:10:52;14.80;90.00
2441;DHT22;1231;53.988;9.470;2022-10-31T07:13:23;14.80;90.00
2441;DHT22;1231;53.988;9.470;2022-10-31T07:16:03;14.90;89.80
2441;DHT22;1231;53.988;9.470;2022-10-31T07:18:34;14.80;89.80
2441;DHT22;1231;53.988;9.470;2022-10-31T07:21:05;14.80;89.80
2441;DHT22;1231;53.988;9.470;2022-10-31T07:23:35;14.80;89.70
2441;DHT22;1231;53.988;9.470;2022-10-31T07:26:07;14.80;89.70
2441;DHT22;1231;53.988;9.470;2022-10-31T07:28:37;14.80;89.60
2441;DHT22;1231;53.988;9.470;2022-10-31T07:31:08;14.80;89.40
2441;DHT22;1231;53.988;9.470;2022-10-31T07:33:39;14.80;89.40
2441;DHT22;1231;53.988;9.470;2022-10-31T07:36:09;14.80;89.40
2441;DHT22;1231;53.988;9.470;2022-10-31T07:38:40;14.80;89.40
2441;DHT22;1231;53.988;9.470;2022-10-31T07:41:10;14.80;89.40
2441;DHT22;1231;53.988;9.470;2022-10-31T07:43:41;14.80;89.30
2441;DHT22;1231;53.988;9.470;2022-10-31T07:46:11;14.80;89.40
2441;DHT22;1231;53.988;9.470;2022-10-31T07:48:42;14.80;89.50
2441;DHT22;1231;53.988;9.470;2022-10-31T07:51:12;14.90;89.40
2441;DHT22;1231;53.988;9.470;2022-10-31T07:53:43;14.90;89.30
2441;DHT22;1231;53.988;9.470;2022-10-31T07:56:13;14.90;89.20
2441;DHT22;1231;53.988;9.470;2022-10-31T07:58:44;14.90;89.20
2441;DHT22;1231;53.988;9.470;2022-10-31T08:01:15;14.90;89.20
2441;DHT22;1231;53.988;9.470;2022-10-31T08:03:47;14.90;89.10
2441;DHT22;1231;53.988;9.470;2022-10-31T08:06:17;14.80;89.20
2441;DHT22;1231;53.988;9.470;2022-10-31T08:08:48;14.80;89.20
2441;DHT22;1231;53.988;9.470;2022-10-31T08:11:19;14.90;89.10
2441;DHT22;1231;53.988;9.470;2022-10-31T08:13:49;14.80;89.20
2441;DHT22;1231;53.988;9.470;2022-10-31T08:16:20;14.80;89.20
2441;DHT22;1231;53.988;9.470;2022-10-31T08:18:50;14.80;89.30
2441;DHT22;1231;53.988;9.470;2022-10-31T08:21:21;14.90;89.20
2441;DHT22;1231;53.988;9.470;2022-10-31T08:23:52;14.90;89.20
2441;DHT22;1231;53.988;9.470;2022-10-31T08:26:22;14.90;89.10
2441;DHT22;1231;53.988;9.470;2022-10-31T08:28:53;15.00;89.00
2441;DHT22;1231;53.988;9.470;2022-10-31T08:31:27;15.00;88.90
2441;DHT22;1231;53.988;9.470;2022-10-31T08:33:58;15.00;88.80
2441;DHT22;1231;53.988;9.470;2022-10-31T08:36:28;15.00;88.80
2441;DHT22;1231;53.988;9.470;2022-10-31T08:38:59;15.00;88.80
2441;DHT22;1231;53.988;9.470;2022-10-31T08:41:30;15.00;88.80
2441;DHT22;1231;53.988;9.470;2022-10-31T08:44:01;15.00;88.80
2441;DHT22;1231;53.988;9.470;2022-10-31T08:46:31;15.00;88.80
2441;DHT22;1231;53.988;9.470;2022-10-31T08:49:02;15.00;88.90
2441;DHT22;1231;53.988;9.470;2022-10-31T08:51:33;15.00;89.00
2441;DHT22;1231;53.988;9.470;2022-10-31T08:54:03;15.00;88.90
2441;DHT22;1231;53.988;9.470;2022-10-31T08:56:34;15.10;88.80
2441;DHT22;1231;53.988;9.470;2022-10-31T08:59:04;15.10;88.70
2441;DHT22;1231;53.988;9.470;2022-10-31T09:01:35;15.10;88.70
2441;DHT22;1231;53.988;9.470;2022-10-31T09:04:05;15.10;88.70
2441;DHT22;1231;53.988;9.470;2022-10-31T09:06:36;15.10;88.80
2441;DHT22;1231;53.988;9.470;2022-10-31T09:09:06;15.20;88.70
2441;DHT22;1231;53.988;9.470;2022-10-31T09:11:37;15.20;88.60
2441;DHT22;1231;53.988;9.470;2022-10-31T09:14:08;15.20;88.60
2441;DHT22;1231;53.988;9.470;2022-10-31T09:16:38;15.20;88.60
2441;DHT22;1231;53.988;9.470;2022-10-31T09:19:09;15.20;88.60
2441;DHT22;1231;53.988;9.470;2022-10-31T09:21:39;15.20;88.70
2441;DHT22;1231;53.988;9.470;2022-10-31T09:24:10;15.20;88.70
2441;DHT22;1231;53.988;9.470;2022-10-31T09:26:41;15.20;88.80
2441;DHT22;1231;53.988;9.470;2022-10-31T09:29:11;15.20;88.80
2441;DHT22;1231;53.988;9.470;2022-10-31T09:31:42;15.20;88.90
2441;DHT22;1231;53.988;9.470;2022-10-31T09:34:12;15.20;88.90
2441;DHT22;1231;53.988;9.470;2022-10-31T09:36:43;15.20;88.90
2441;DHT22;1231;53.988;9.470;2022-10-31T09:39:14;15.30;88.90
2441;DHT22;1231;53.988;9.470;2022-10-31T09:45:23;15.30;88.80
2441;DHT22;1231;53.988;9.470;2022-10-31T09:48:20;15.30;88.80
2441;DHT22;1231;53.988;9.470;2022-10-31T09:51:06;15.40;88.80
2441;DHT22;1231;53.988;9.470;2022-10-31T09:56:13;15.40;88.60
2441;DHT22;1231;53.988;9.470;2022-10-31T09:58:47;15.40;88.60
2441;DHT22;1231;53.988;9.470;2022-10-31T10:04:34;15.50;88.60
2441;DHT22;1231;53.988;9.470;2022-10-31T10:10:21;15.60;88.50
2441;DHT22;1231;53.988;9.470;2022-10-31T10:15:51;15.70;88.40
2441;DHT22;1231;53.988;9.470;2022-10-31T10:18:37;15.70;88.40
2441;DHT22;1231;53.988;9.470;2022-10-31T10:21:28;15.70;88.40
2441;DHT22;1231;53.988;9.470;2022-10-31T10:26:37;15.80;88.50
2441;DHT22;1231;53.988;9.470;2022-10-31T10:32:28;15.90;88.10
2441;DHT22;1231;53.988;9.470;2022-10-31T10:35:14;15.90;88.20
2441;DHT22;1231;53.988;9.470;2022-10-31T10:37:49;16.00;88.10
2441;DHT22;1231;53.988;9.470;2022-10-31T10:40:24;16.10;88.00
2441;DHT22;1231;53.988;9.470;2022-10-31T10:49:17;16.10;87.40
2441;DHT22;1231;53.988;9.470;2022-10-31T10:52:10;16.10;87.40
2441;DHT22;1231;53.988;9.470;2022-10-31T10:54:54;16.20;87.30
2441;DHT22;1231;53.988;9.470;2022-10-31T10:57:54;16.20;87.50
2441;DHT22;1231;53.988;9.470;2022-10-31T11:00:40;16.30;87.50
2441;DHT22;1231;53.988;9.470;2022-10-31T11:03:11;16.30;87.40
2441;DHT22;1231;53.988;9.470;2022-10-31T11:05:55;16.40;87.30
2441;DHT22;1231;53.988;9.470;2022-10-31T11:08:35;16.40;87.30
2441;DHT22;1231;53.988;9.470;2022-10-31T11:13:44;16.50;87.20
2441;DHT22;1231;53.988;9.470;2022-10-31T11:16:38;16.50;87.10
2441;DHT22;1231;53.988;9.470;2022-10-31T11:21:43;16.70;87.20
2441;DHT22;1231;53.988;9.470;2022-10-31T11:24:21;16.80;87.20
2441;DHT22;1231;53.988;9.470;2022-10-31T11:27:09;17.00;86.90
2441;DHT22;1231;53.988;9.470;2022-10-31T11:29:42;17.00;86.70
2441;DHT22;1231;53.988;9.470;2022-10-31T11:32:21;17.00;86.50
2441;DHT22;1231;53.988;9.470;2022-10-31T11:35:01;17.00;86.60
2441;DHT22;1231;53.988;9.470;2022-10-31T11:37:35;17.10;86.40
2441;DHT22;1231;53.988;9.470;2022-10-31T11:40:22;17.20;86.20
2441;DHT22;1231;53.988;9.470;2022-10-31T11:42:56;17.30;85.70
2441;DHT22;1231;53.988;9.470;2022-10-31T11:45:31;17.30;85.50
2441;DHT22;1231;53.988;9.470;2022-10-31T11:48:21;17.30;85.20
2441;DHT22;1231;53.988;9.470;2022-10-31T11:50:56;17.40;85.20
2441;DHT22;1231;53.988;9.470;2022-10-31T11:53:32;17.40;85.00
2441;DHT22;1231;53.988;9.470;2022-10-31T11:56:10;17.50;84.70
2441;DHT22;1231;53.988;9.470;2022-10-31T11:58:42;17.50;84.20
2441;DHT22;1231;53.988;9.470;2022-10-31T12:01:27;17.60;84.10
2441;DHT22;1231;53.988;9.470;2022-10-31T12:04:10;17.60;84.10
2441;DHT22;1231;53.988;9.470;2022-10-31T12:06:43;17.70;84.00
2441;DHT22;1231;53.988;9.470;2022-10-31T12:09:24;17.70;83.90
2441;DHT22;1231;53.988;9.470;2022-10-31T12:17:37;17.80;83.60
2441;DHT22;1231;53.988;9.470;2022-10-31T12:20:35;17.80;83.40
2441;DHT22;1231;53.988;9.470;2022-10-31T12:26:20;17.80;83.40
2441;DHT22;1231;53.988;9.470;2022-10-31T12:38:02;17.80;83.50
2441;DHT22;1231;53.988;9.470;2022-10-31T12:57:47;17.70;83.20
2441;DHT22;1231;53.988;9.470;2022-10-31T13:00:19;17.70;83.10
2441;DHT22;1231;53.988;9.470;2022-10-31T13:03:02;17.70;83.10
2441;DHT22;1231;53.988;9.470;2022-10-31T13:05:43;17.70;83.10
2441;DHT22;1231;53.988;9.470;2022-10-31T13:08:21;17.70;83.30
2441;DHT22;1231;53.988;9.470;2022-10-31T13:11:14;17.60;83.40
2441;DHT22;1231;53.988;9.470;2022-10-31T13:16:29;17.60;83.40
2441;DHT22;1231;53.988;9.470;2022-10-31T13:19:11;17.50;83.50
2441;DHT22;1231;53.988;9.470;2022-10-31T13:22:22;17.40;83.60
2441;DHT22;1231;53.988;9.470;2022-10-31T13:25:16;17.30;83.70
2441;DHT22;1231;53.988;9.470;2022-10-31T13:28:00;17.30;83.70
2441;DHT22;1231;53.988;9.470;2022-10-31T13:30:34;17.20;83.20
2441;DHT22;1231;53.988;9.470;2022-10-31T13:33:29;17.10;83.50
2441;DHT22;1231;53.988;9.470;2022-10-31T13:43:01;17.40;83.50
2441;DHT22;1231;53.988;9.470;2022-10-31T13:45:14;17.30;83.00
2441;DHT22;1231;53.988;9.470;2022-10-31T13:48:00;17.30;83.00
2441;DHT22;1231;53.988;9.470;2022-10-31T13:50:32;17.30;82.90
2441;DHT22;1231;53.988;9.470;2022-10-31T13:56:13;17.30;82.90
2441;DHT22;1231;53.988;9.470;2022-10-31T13:59:02;17.30;82.70
2441;DHT22;1231;53.988;9.470;2022-10-31T14:01:33;17.20;82.60
2441;DHT22;1231;53.988;9.470;2022-10-31T14:04:15;17.20;82.70
2441;DHT22;1231;53.988;9.470;2022-10-31T14:09:32;17.00;82.70
2441;DHT22;1231;53.988;9.470;2022-10-31T14:12:36;17.00;82.60
2441;DHT22;1231;53.988;9.470;2022-10-31T14:15:24;16.90;82.70
2441;DHT22;1231;53.988;9.470;2022-10-31T14:17:58;16.70;82.60
2441;DHT22;1231;53.988;9.470;2022-10-31T14:20:39;16.60;82.60
2441;DHT22;1231;53.988;9.470;2022-10-31T14:26:19;16.50;83.00
2441;DHT22;1231;53.988;9.470;2022-10-31T14:28:51;16.50;83.10
2441;DHT22;1231;53.988;9.470;2022-10-31T14:34:39;16.50;83.20
2441;DHT22;1231;53.988;9.470;2022-10-31T14:40:25;16.50;83.30
2441;DHT22;1231;53.988;9.470;2022-10-31T14:46:18;16.40;83.80
2441;DHT22;1231;53.988;9.470;2022-10-31T14:51:46;16.30;84.10
2441;DHT22;1231;53.988;9.470;2022-10-31T14:54:29;16.30;84.10
2441;DHT22;1231;53.988;9.470;2022-10-31T14:57:06;16.30;84.10
2441;DHT22;1231;53.988;9.470;2022-10-31T14:59:38;16.30;84.20
2441;DHT22;1231;53.988;9.470;2022-10-31T15:04:51;16.20;84.30
2441;DHT22;1231;53.988;9.470;2022-10-31T15:07:24;16.20;84.30
2441;DHT22;1231;53.988;9.470;2022-10-31T15:12:33;16.10;84.40
2441;DHT22;1231;53.988;9.470;2022-10-31T15:15:19;16.10;84.30
2441;DHT22;1231;53.988;9.470;2022-10-31T15:18:00;16.10;84.30
2441;DHT22;1231;53.988;9.470;2022-10-31T15:20:41;16.00;84.20
2441;DHT22;1231;53.988;9.470;2022-10-31T15:23:24;15.90;84.20
2441;DHT22;1231;53.988;9.470;2022-10-31T15:25:59;15.80;84.30
2441;DHT22;1231;53.988;9.470;2022-10-31T15:28:31;15.70;84.50
2441;DHT22;1231;53.988;9.470;2022-10-31T15:31:02;15.70;84.60
2441;DHT22;1231;53.988;9.470;2022-10-31T15:33:40;15.60;84.60
2441;DHT22;1231;53.988;9.470;2022-10-31T15:36:23;15.50;84.70
2441;DHT22;1231;53.988;9.470;2022-10-31T15:38:55;15.50;84.80
2441;DHT22;1231;53.988;9.470;2022-10-31T15:44:19;15.40;85.00
2441;DHT22;1231;53.988;9.470;2022-10-31T15:47:15;15.30;85.10
2441;DHT22;1231;53.988;9.470;2022-10-31T15:49:58;15.20;85.40
2441;DHT22;1231;53.988;9.470;2022-10-31T15:52:38;15.20;85.50
2441;DHT22;1231;53.988;9.470;2022-10-31T15:57:43;15.10;85.60
2441;DHT22;1231;53.988;9.470;2022-10-31T16:03:03;15.00;85.60
2441;DHT22;1231;53.988;9.470;2022-10-31T16:05:44;15.00;85.60
2441;DHT22;1231;53.988;9.470;2022-10-31T16:14:06;14.80;85.90
2441;DHT22;1231;53.988;9.470;2022-10-31T16:16:45;14.70;86.00
2441;DHT22;1231;53.988;9.470;2022-10-31T16:19:33;14.70;86.10
2441;DHT22;1231;53.988;9.470;2022-10-31T16:22:09;14.60;86.10
2441;DHT22;1231;53.988;9.470;2022-10-31T16:24:48;14.60;86.20
2441;DHT22;1231;53.988;9.470;2022-10-31T16:27:26;14.60;86.20
2441;DHT22;1231;53.988;9.470;2022-10-31T16:30:00;14.50;86.20
2441;DHT22;1231;53.988;9.470;2022-10-31T16:32:50;14.50;86.20
2441;DHT22;1231;53.988;9.470;2022-10-31T16:35:33;14.50;86.20
2441;DHT22;1231;53.988;9.470;2022-10-31T16:38:04;14.50;86.30
2441;DHT22;1231;53.988;9.470;2022-10-31T16:40:37;14.40;86.20
2441;DHT22;1231;53.988;9.470;2022-10-31T16:43:12;14.40;86.30
2441;DHT22;1231;53.988;9.470;2022-10-31T16:45:49;14.40;86.30
2441;DHT22;1231;53.988;9.470;2022-10-31T16:48:21;14.40;86.50
2441;DHT22;1231;53.988;9.470;2022-10-31T16:50:53;14.40;86.60
2441;DHT22;1231;53.988;9.470;2022-10-31T16:53:24;14.40;86.60
2441;DHT22;1231;53.988;9.470;2022-10-31T16:55:56;14.40;86.60
2441;DHT22;1231;53.988;9.470;2022-10-31T16:58:32;14.40;86.70
2441;DHT22;1231;53.988;9.470;2022-10-31T17:01:05;14.30;86.70
2441;DHT22;1231;53.988;9.470;2022-10-31T17:03:36;14.30;86.70
2441;DHT22;1231;53.988;9.470;2022-10-31T17:06:11;14.30;86.80
2441;DHT22;1231;53.988;9.470;2022-10-31T17:08:42;14.30;86.90
2441;DHT22;1231;53.988;9.470;2022-10-31T17:11:21;14.20;86.90
2441;DHT22;1231;53.988;9.470;2022-10-31T17:13:53;14.20;87.00
2441;DHT22;1231;53.988;9.470;2022-10-31T17:16:24;14.20;87.10
2441;DHT22;1231;53.988;9.470;2022-10-31T17:18:54;14.20;87.10
2441;DHT22;1231;53.988;9.470;2022-10-31T17:21:25;14.20;87.20
2441;DHT22;1231;53.988;9.470;2022-10-31T17:23:57;14.20;87.30
2441;DHT22;1231;53.988;9.470;2022-10-31T17:26:27;14.20;87.30
2441;DHT22;1231;53.988;9.470;2022-10-31T17:28:58;14.20;87.20
2441;DHT22;1231;53.988;9.470;2022-10-31T17:31:33;14.20;87.20
2441;DHT22;1231;53.988;9.470;2022-10-31T17:34:06;14.20;87.20
2441;DHT22;1231;53.988;9.470;2022-10-31T17:36:37;14.20;87.20
2441;DHT22;1231;53.988;9.470;2022-10-31T17:39:08;14.20;87.20
2441;DHT22;1231;53.988;9.470;2022-10-31T17:41:39;14.20;87.20
2441;DHT22;1231;53.988;9.470;2022-10-31T17:44:10;14.20;87.20
2441;DHT22;1231;53.988;9.470;2022-10-31T17:46:41;14.20;87.20
2441;DHT22;1231;53.988;9.470;2022-10-31T17:49:11;14.10;87.30
2441;DHT22;1231;53.988;9.470;2022-10-31T17:51:42;14.20;87.30
2441;DHT22;1231;53.988;9.470;2022-10-31T17:54:12;14.10;87.30
2441;DHT22;1231;53.988;9.470;2022-10-31T17:56:48;14.10;87.30
2441;DHT22;1231;53.988;9.470;2022-10-31T17:59:18;14.10;87.30
2441;DHT22;1231;53.988;9.470;2022-10-31T18:01:49;14.10;87.30
2441;DHT22;1231;53.988;9.470;2022-10-31T18:04:19;14.10;87.50
2441;DHT22;1231;53.988;9.470;2022-10-31T18:06:51;14.10;87.50
2441;DHT22;1231;53.988;9.470;2022-10-31T18:09:21;14.10;87.50
2441;DHT22;1231;53.988;9.470;2022-10-31T18:11:52;14.20;87.60
2441;DHT22;1231;53.988;9.470;2022-10-31T18:14:22;14.20;87.60
2441;DHT22;1231;53.988;9.470;2022-10-31T18:16:53;14.20;87.60
2441;DHT22;1231;53.988;9.470;2022-10-31T18:19:24;14.20;87.60
2441;DHT22;1231;53.988;9.470;2022-10-31T18:21:54;14.20;87.70
2441;DHT22;1231;53.988;9.470;2022-10-31T18:24:25;14.20;87.70
2441;DHT22;1231;53.988;9.470;2022-10-31T18:26:57;14.20;87.70
2441;DHT22;1231;53.988;9.470;2022-10-31T18:29:28;14.20;87.70
2441;DHT22;1231;53.988;9.470;2022-10-31T18:31:58;14.20;87.70
2441;DHT22;1231;53.988;9.470;2022-10-31T18:34:29;14.20;87.70
2441;DHT22;1231;53.988;9.470;2022-10-31T18:37:00;14.20;87.80
2441;DHT22;1231;53.988;9.470;2022-10-31T18:39:30;14.20;87.80
2441;DHT22;1231;53.988;9.470;2022-10-31T18:42:01;14.20;87.90
2441;DHT22;1231;53.988;9.470;2022-10-31T18:44:31;14.20;87.90
2441;DHT22;1231;53.988;9.470;2022-10-31T18:47:02;14.20;87.90
2441;DHT22;1231;53.988;9.470;2022-10-31T18:49:33;14.10;87.90
2441;DHT22;1231;53.988;9.470;2022-10-31T18:52:03;14.10;87.90
2441;DHT22;1231;53.988;9.470;2022-10-31T18:54:34;14.10;88.00
2441;DHT22;1231;53.988;9.470;2022-10-31T18:57:05;14.10;88.10
2441;DHT22;1231;53.988;9.470;2022-10-31T18:59:35;14.10;88.10
2441;DHT22;1231;53.988;9.470;2022-10-31T19:02:06;14.10;88.10
2441;DHT22;1231;53.988;9.470;2022-10-31T19:04:36;14.10;88.10
2441;DHT22;1231;53.988;9.470;2022-10-31T19:07:07;14.10;88.10
2441;DHT22;1231;53.988;9.470;2022-10-31T19:09:38;14.10;88.20
2441;DHT22;1231;53.988;9.470;2022-10-31T19:12:08;14.10;88.20